Etusivu
METAR-TAF:

METAR-TAF

Lentoasemat :

Detroit Lakes, Minnesota, Yhdysvallat

Leveyspiiri: 46-50N, Pituuspiiri: 095-53W, korkeus merenpinnasta: 426 m

Tämänhetkinen sää

Tämä raportti tehtiin 16 minuuttia sitten, kello 18.35 UTC
Tuuli 12 kn kaakosta
Lämpötila 12°C
Kosteus 94%
Ilmanpaine 1007 hPa
Näkyvyys: 4.0 km
Pilvistä 900 ft:n korkeudessa
utua

METAR: KDTL 241835Z AUTO 14012KT 2 1/2SM BR OVC009 12/11 A2975 RMK AO2

Aika: 13:51 (18:51 UTC)


TAF: puuttuu

Säähavainnot ja -ennusteet yli 4000 lentoasemalta (METAR- ja TAF-raportit).

Käytössä olevat sääasemat on merkitty karttaan keltaisilla ja punaisilla pisteillä.

Aseta hiiri pisteen päälle nähdäksesi sääaseman nimen.

Klikkaa sitten nähdäksesi säähavainnot ja -ennusteet.

Kartan vaihtaminen: klikkaa mustalla rastilla varustettuja vihreitä pisteitä, niin voit zoomata sisään; viivalla varustettua vihreää pistettä, niin voit zoomata ulos tai vihreitä nuolia, niin pääset viereisille kartoille.


METAR-TAF: